AirNav   Pilot Hours Calculator
 
 1045 users online  

89TE Plaza Medical Center Heliport
Fort Worth, Texas, USA


FAA INFORMATION EFFECTIVE 22 APRIL 2021

Location

FAA Identifier: 89TE
Lat/Long: 32-44-09.3100N 097-20-46.4000W
32-44.155167N 097-20.773333W
32.7359194,-97.3462222
(estimated)
Elevation: 667 ft. / 203 m (estimated)
From city: 1 mile SW of FORT WORTH, TX
Time zone: UTC -5 (UTC -6 during Standard Time)
Zip code: 76104

Heliport Operations

Heliport use: Private use. Permission required prior to landing
Activation date: 10/2020
Control tower: no
ARTCC: FORT WORTH CENTER
FSS: FORT WORTH FLIGHT SERVICE STATION
Attendance: UNATNDD
Wind indicator: yes
Segmented circle: no

Heliport Communications

WX ASOS at FTW (5 nm N): PHONE 817-740-3346
WX AWOS-3 at FWS (10 nm S): 120.025 (817-426-4172)
WX ASOS at GKY (13 nm E): 127.375 (817-557-0251)
WX AWOS-3P at GPM (15 nm E): 118.475 (972-606-1433)
WX ASOS at AFW (15 nm N): PHONE 817-491-6188
WX ASOS at DFW (18 nm NE): PHONE 972-615-2608

Nearby radio navigation aids

VOR radial/distance  VOR name  Freq  Var
FUZr216/12.5RANGER VORTAC115.7006E
TTTr237/17.4MAVERICK VOR/DME113.1006E
CVEr241/24.1COWBOY VOR/DME116.2006E
MQPr080/32.9MILLSAP VORTAC117.7009E

 
NDB name  Hdg/Dist  Freq  Var  ID
MUFIN164/9.536508EFT ..-. -

Heliport Services

Runway Information

Helipad H1

Dimensions: 53 x 53 ft. / 16 x 16 m
Surface: mats, in good condition
Latitude: 32-44.155167N
Longitude: 097-20.773333W
Elevation: 667.0 ft.
Traffic pattern: leftleft

Heliport Ownership and Management from official FAA records

Ownership: Privately-owned
Owner: MEDICAL CITY FORT WORTH
900 EIGHTH AVENUE
FORT WORTH, TX 76104
Phone 817-347-4571
Manager: JAY GRUBBS
900 EIGHTH AVENUE
FORT WORTH, TX 76104
Phone 817-347-4571

Instrument Procedures

There are no published instrument procedures at 89TE.

Some nearby airports with instrument procedures:

KFTW - Fort Worth Meacham International Airport (5 nm N)
KNFW - Fort Worth Naval Air Station JRB (Carswell Field) Airport (5 nm NW)
KFWS - Fort Worth Spinks Airport (10 nm S)
KGKY - Arlington Municipal Airport (13 nm E)
KGPM - Grand Prairie Municipal Airport (15 nm E)
KAFW - Fort Worth Alliance Airport (15 nm N)
50F - Bourland Field Airport (15 nm SW)
4T2 - Kenneth Copeland Airport (16 nm NW)
KWEA - Parker County Airport (17 nm W)
KDFW - Dallas-Fort Worth International Airport (18 nm NE)
 
Loc | Ops | Rwys | IFR | FBO | Links
Com | Nav | Svcs | Stats | Notes
Aerial photo
No photo
 
Airport distance calculator
Flying to Plaza Medical Center Heliport? Find the distance to fly.

From to 89TE

Sunrise and sunset
Times for 10-May-2021
 Local
(UTC-5)
 Zulu
(UTC)
Morning civil twilight06:0811:08
Sunrise06:3511:35
Sunset20:1601:16
Evening civil twilight20:4301:43

Current date and time
Zulu (UTC)  11-May-2021 02:28:08
Local (UTC-5)  10-May-2021 21:28:08
 
METAR
KNFW 
6nm W 
110159Z 02008KT 10SM TSRA BKN012CB OVC050 15/13 A3002 RMK AO2 OCNL LTGICCC S TS 6 S MOV E P0000 T01500133 $
KFTW 
6nm N 
110215Z 03007KT 10SM VCTS -RA SCT006 BKN010 OVC085 13/13 A3000 RMK AO2 LTG DSNT ALQDS CIG 008V015 P0001 T01330133
KFWS 
10nm S 
110215Z AUTO 02007KT 7SM -VCTSRA SCT006 SCT022 OVC034 14/13 A3002 RMK AO2 LTG DSNT ALQDS P0001 T01450137
KGKY 
13nm E 
110220Z AUTO 00000KT 2SM +TSRA BR FEW012 SCT029 OVC033 16/14 A3001 RMK AO2 LTG DSNT NE AND W P0038 T01610144
KAFW 
14nm N 
110220Z 04005KT 10SM BKN009 OVC017 14/13 A3002 RMK AO2 LTG DSNT ALQDS RAB09E19 TSE20 CIG 006V014 TS MOV E P0000 T01440128
KGPM 
15nm E 
110215Z AUTO 07004KT 2SM SCT006 OVC011 15/15 A3002 RMK AO2 VIS 1 1/4V5 P0009 T01460146
KDFW 
19nm NE 
110205Z 07008KT 3SM -TSRA BR BKN010 BKN015 OVC050CB 14/14 A2999 RMK AO2 SFC VIS 3 LTG DSNT ALQDS OCNL LTGICCG ALQDS TS ALQDS MOV NE P0025 T01440139
TAF
KNFW 
6nm W 
1023/1123 02010KT 9999 VCTS OVC009CB QNH2993INS TEMPO 1023/1002 VRB35G50KT 2400 +TSRAGS OVC008CB FM110400 03008KT 6000 -RA BR OVC004 QNH2998INS FM111400 04012G18KT 9000 SHRA BR VCTS OVC006CB QNH2999INS TEMPO 1115/1119 VRB15G35KT 4000 -TSRA BR OVC012CB FM112100 07009KT 9000 SHRA OVC012 QNH2997INS AUTOMATED SENSOR METWATCH 1104 TIL 1111 T13/1111Z T19/1118Z FN20048
KFTW 
6nm N 
102210Z 1022/1118 04011KT P6SM VCTS BKN010CB TEMPO 1022/1102 4SM -TSRA BKN008CB FM110400 05007KT P6SM VCSH BKN005 TEMPO 1109/1113 2SM BR BKN003 FM111300 05009KT 3SM SHRA VCTS OVC009CB TEMPO 1115/1118 4SM -TSRA BKN004CB
KGKY 
13nm E 
102210Z 1022/1118 04011KT P6SM VCTS BKN010CB TEMPO 1023/1103 4SM -TSRA BKN008CB FM110400 05007KT P6SM VCSH BKN005 TEMPO 1109/1113 2SM BR BKN003 FM111300 05009KT 3SM SHRA VCTS OVC009CB TEMPO 1115/1118 4SM -TSRA BKN004CB
KAFW 
14nm N 
102210Z 1022/1118 04011KT P6SM VCTS BKN010CB TEMPO 1022/1102 4SM -TSRA BKN008CB FM110400 05007KT P6SM VCSH BKN005 TEMPO 1109/1113 2SM BR BKN003 FM111300 05009KT 3SM SHRA VCTS OVC009CB TEMPO 1115/1118 4SM -TSRA BKN004CB
KDFW 
19nm NE 
102210Z 1022/1124 04011KT P6SM VCTS BKN010CB TEMPO 1023/1103 4SM -TSRA BKN008CB FM110400 05007KT P6SM VCSH BKN005 TEMPO 1109/1113 2SM BR BKN003 FM111300 05009KT 3SM SHRA VCTS OVC009CB TEMPO 1115/1119 4SM -TSRA BKN004CB FM112000 06011KT 4SM -SHRA VCSH OVC008
NOTAMs
Click for the latest NOTAMs
NOTAMs are issued by the DoD/FAA and will open in a separate window not controlled by AirNav.

 

 
 

Would you like to see your business listed on this page?

 If your business provides an interesting product or service to pilots, flight crews, aircraft, or users of the Plaza Medical Center Heliport, you should consider listing it here.  To start the listing process, click on the button below
 
Add a business
 

Other Pages about Plaza Medical Center Heliport

Update a link
 
Copyright © AirNav, LLC. All rights reserved. Privacy Policy  Contact